Uelen, Russia
Current Conditions -  °F | °C
As of 3:24 AM on Sunday 26 Oct 2014 (Local Time) from PAIW Reporting Station
Light Rain Light Rain  
Wind Chill: 26°   Ceiling: 1100
Heat Index: 34°   Visibility: 9mi
Dew Point: 34°   Wind: 9mph
Humidity: 100%   Direction: 200°SSW
Pressure: 29.48"   Gusts: NA
Location:  66.16°N, 169.82°W
Report Text: PAIW 251524Z AUTO 20008KT 9SM -RA BKN011 BKN020 OVC026 01/01 A2948 RMK AO2 P0001 FZRANO
Loading
Personal Weather Stations






























Interactive Weather Map
Tropical Storm Tracking
New forecast layout! Learn more

10-Day Weather Forecast

Advertisements
Track Severe Weather on mobile